High temp

Not for real navigation. The accuracy of this data is not assured See disclaimer for more information



ICAO NAME COUNTRY WIND Kt GUST Kt VIS m TEMP/DEW C BARO METAR
YPKU Kununurra Kununurra Aws Australia 4 0 9999 40/6 29.71 YPKU 150830Z AUTO 21004KT 9999 // BKN120 40/06 Q1006 RF00.0/000.0
YARG 9 0 9999 40/4 29.74 YARG 150800Z AUTO 23009KT 9999 // NCD 40/04 Q1007
VAAH Ahmadabad India 5 0 6000 39/11 29.85 VAAH 150830Z 32005KT 6000 NSC 39/11 Q1011 NOSIG
OPKC Karachi Airport Pakistan 6 0 6000 39/2 29.83 OPKC 150825Z 31006KT 6000 NSC 39/02 Q1010 NOSIG
VABB Bombay / Santacruz India 3 0 4000 38/17 29.83 VABB 150830Z 11003KT 4000 FU NSC 38/17 Q1010 NOSIG

Show more